createdAt,value
2022-10-13T13:41:52.079Z,65.10
2022-10-13T13:43:24.357Z,67.30
2022-10-13T13:44:56.760Z,68.00
2022-10-13T13:46:29.602Z,69.20
2022-10-13T13:48:02.177Z,69.50
2022-10-13T13:49:34.604Z,70.10
2022-10-13T13:51:09.188Z,70.40
2022-10-13T13:52:41.794Z,70.90
2022-10-13T13:54:13.901Z,71.80
2022-10-13T13:55:47.434Z,72.20
2022-10-13T13:57:20.345Z,72.90
2022-10-13T13:58:52.819Z,72.50
2022-10-13T14:00:25.408Z,73.10
2022-10-13T14:01:57.725Z,73.00
2022-10-13T14:03:29.926Z,72.60
2022-10-13T14:05:02.066Z,72.50
2022-10-13T14:06:34.169Z,72.90
2022-10-13T14:08:06.714Z,73.50
2022-10-13T14:09:39.029Z,73.20
2022-10-13T14:11:11.294Z,73.70
2022-10-13T14:12:43.408Z,74.50
2022-10-13T14:14:15.663Z,75.00
2022-10-13T14:15:57.572Z,74.40
2022-10-13T14:17:29.717Z,74.90
2022-10-13T14:19:01.793Z,75.60
2022-10-13T14:20:34.100Z,74.70
2022-10-13T14:22:09.491Z,74.50
2022-10-13T14:23:46.834Z,74.70
2022-10-13T14:25:19.310Z,75.40
2022-10-13T14:26:51.559Z,75.10
2022-10-13T14:28:23.698Z,75.90
2022-10-13T14:29:56.004Z,76.00
2022-10-13T14:31:28.897Z,76.70
2022-10-13T14:33:01.953Z,76.60
2022-10-13T14:34:34.160Z,76.70
2022-10-13T14:36:09.223Z,77.00
2022-10-13T14:37:41.400Z,77.30
2022-10-13T14:39:13.774Z,77.20
2022-10-13T14:40:46.009Z,77.60
2022-10-13T14:42:18.336Z,77.30
2022-10-13T14:43:56.887Z,76.90
2022-10-13T14:45:29.161Z,77.60
2022-10-13T14:47:01.221Z,77.40
2022-10-13T14:48:35.313Z,77.40
2022-10-13T14:50:07.978Z,77.60
2022-10-13T14:51:40.269Z,78.00
2022-10-13T14:53:15.337Z,78.10
2022-10-13T14:54:47.606Z,78.40
2022-10-13T14:56:21.408Z,78.90
2022-10-13T14:57:53.735Z,79.20
2022-10-13T14:59:25.809Z,79.30
2022-10-13T15:00:58.178Z,79.30
2022-10-13T15:02:30.320Z,79.80
2022-10-13T15:04:03.301Z,80.10
2022-10-13T15:05:35.365Z,80.50
2022-10-13T15:07:07.740Z,80.70
2022-10-13T15:08:39.995Z,80.90
2022-10-13T15:10:12.369Z,81.60
2022-10-13T15:11:46.241Z,82.10
2022-10-13T15:13:18.347Z,82.20
2022-10-13T15:14:50.418Z,83.00
2022-10-13T15:16:28.652Z,83.20
2022-10-13T15:18:01.082Z,83.30
2022-10-13T15:19:33.204Z,83.90
2022-10-13T15:21:05.375Z,84.60
2022-10-13T15:22:37.854Z,84.90
2022-10-13T15:24:11.364Z,85.40
2022-10-13T15:25:56.310Z,85.60
2022-10-13T15:27:28.407Z,85.80
2022-10-13T15:29:00.816Z,86.20
2022-10-13T15:30:34.073Z,86.60
2022-10-13T15:32:18.755Z,87.10
2022-10-13T15:33:53.399Z,87.60
2022-10-13T15:35:30.069Z,87.70
2022-10-13T15:37:02.123Z,87.70
2022-10-13T15:38:34.231Z,87.80
2022-10-13T15:40:06.944Z,88.60
2022-10-13T15:41:39.509Z,88.80
2022-10-13T15:43:12.441Z,89.10
2022-10-13T15:45:08.818Z,89.30
2022-10-13T15:46:37.852Z,89.40
2022-10-13T15:48:15.950Z,89.50
2022-10-13T15:49:48.020Z,90.00
2022-10-13T15:51:22.264Z,90.00
2022-10-13T15:52:54.611Z,90.10
2022-10-13T15:54:27.202Z,90.40
2022-10-13T15:56:02.220Z,90.70
2022-10-13T15:57:34.294Z,91.00
2022-10-13T15:59:06.512Z,91.20
2022-10-13T16:00:39.856Z,91.40
2022-10-13T16:02:11.940Z,91.60
2022-10-13T16:03:43.997Z,91.90
2022-10-13T16:05:16.050Z,92.30
2022-10-13T16:06:48.733Z,92.60
2022-10-13T16:08:20.971Z,93.00
2022-10-13T16:09:53.243Z,93.40
2022-10-13T16:11:26.371Z,93.70
2022-10-13T16:12:59.248Z,94.20
2022-10-13T16:14:31.374Z,94.70
2022-10-13T16:16:03.929Z,95.20
2022-10-13T16:17:36.933Z,95.80
2022-10-13T16:19:09.301Z,96.40
2022-10-13T16:20:45.305Z,96.90
2022-10-13T16:22:18.061Z,97.50
2022-10-13T16:23:50.895Z,98.10
2022-10-13T16:25:23.428Z,98.70
2022-10-13T16:26:55.612Z,99.60
2022-10-13T16:28:27.839Z,99.90
2022-10-13T16:29:59.937Z,99.90
2022-10-13T16:31:32.763Z,99.90
2022-10-13T16:33:04.902Z,99.90
2022-10-13T16:34:37.692Z,99.90
2022-10-13T16:36:12.279Z,99.90
2022-10-13T16:37:44.713Z,99.90
2022-10-13T16:39:16.848Z,99.90
2022-10-13T16:40:51.982Z,99.90
2022-10-13T16:42:24.240Z,99.90
2022-10-13T16:43:56.644Z,99.90
2022-10-13T16:45:47.952Z,99.90
2022-10-13T16:47:21.222Z,99.90
2022-10-13T16:48:54.038Z,99.90
2022-10-13T16:50:26.191Z,99.90
2022-10-13T16:51:58.339Z,99.90
2022-10-13T16:53:30.573Z,99.90
2022-10-13T16:55:04.149Z,99.90
2022-10-13T16:56:36.474Z,99.90
2022-10-13T16:58:09.215Z,99.90
2022-10-13T16:59:41.289Z,99.90
2022-10-13T17:01:13.750Z,99.90
2022-10-13T17:02:47.045Z,99.90
2022-10-13T17:04:22.168Z,99.90
2022-10-13T17:05:54.511Z,99.90
2022-10-13T17:07:26.923Z,99.90
2022-10-13T17:09:00.510Z,99.90
2022-10-13T17:10:34.246Z,99.90
2022-10-13T17:12:07.076Z,99.90
2022-10-13T17:13:39.479Z,99.90
2022-10-13T17:15:11.751Z,99.90
2022-10-13T17:16:45.147Z,99.90
2022-10-13T17:18:17.542Z,99.90
2022-10-13T17:19:50.154Z,99.90
2022-10-13T17:21:22.854Z,99.90
2022-10-13T17:22:55.002Z,99.90
2022-10-13T17:24:27.345Z,99.90
2022-10-13T17:26:05.995Z,99.90
2022-10-13T17:27:38.096Z,99.90
2022-10-13T17:29:10.207Z,99.90
2022-10-13T17:30:43.194Z,99.90
2022-10-13T17:32:15.349Z,99.90
2022-10-13T17:33:48.534Z,99.90
2022-10-13T17:35:20.656Z,99.90
2022-10-13T17:36:52.966Z,99.90
2022-10-13T17:38:25.075Z,99.90
2022-10-13T17:39:57.205Z,99.90
2022-10-13T17:41:29.443Z,99.90
2022-10-13T17:43:02.632Z,99.90
2022-10-13T17:44:34.720Z,99.90
2022-10-13T17:48:06.523Z,99.90
2022-10-13T17:49:38.567Z,99.90
2022-10-13T17:51:13.643Z,99.90
2022-10-13T17:52:45.794Z,99.90
2022-10-13T17:54:19.452Z,99.90
2022-10-13T17:55:51.754Z,99.90
2022-10-13T17:57:24.106Z,99.90
2022-10-13T17:58:56.825Z,99.90
2022-10-13T18:00:29.728Z,99.90
2022-10-13T18:02:02.096Z,99.90
2022-10-13T18:03:34.811Z,99.90
2022-10-13T18:05:07.240Z,99.90
2022-10-13T18:06:40.899Z,99.90
2022-10-13T18:08:13.470Z,99.90
2022-10-13T18:09:45.625Z,99.90
2022-10-13T18:11:21.493Z,99.90
2022-10-13T18:12:53.773Z,99.90
2022-10-13T18:14:26.090Z,99.90
2022-10-13T18:16:10.762Z,99.90
2022-10-13T18:17:42.874Z,99.90
2022-10-13T18:19:15.249Z,99.90
2022-10-13T18:20:47.342Z,99.90
2022-10-13T18:22:19.776Z,99.90
2022-10-13T18:23:53.042Z,99.90
2022-10-13T18:25:25.438Z,99.90
2022-10-13T18:26:57.570Z,99.90
2022-10-13T18:28:32.162Z,99.90
2022-10-13T18:30:04.789Z,99.90
2022-10-13T18:31:38.985Z,99.90
2022-10-13T18:33:11.427Z,99.90
2022-10-13T18:34:43.598Z,99.90
2022-10-13T18:36:23.462Z,99.90
2022-10-13T18:37:56.381Z,99.90
2022-10-13T18:39:29.318Z,99.90
2022-10-13T18:41:01.516Z,99.90
2022-10-13T18:42:33.734Z,99.90
2022-10-13T18:44:07.067Z,99.90
2022-10-13T18:45:39.174Z,99.90
2022-10-13T18:47:11.263Z,99.90
2022-10-13T18:48:43.440Z,99.90
2022-10-13T18:50:15.876Z,99.90
2022-10-13T18:51:50.794Z,99.90
2022-10-13T18:53:23.165Z,99.90
2022-10-13T18:54:55.297Z,99.90
2022-10-13T18:56:30.158Z,99.90
2022-10-13T18:58:02.305Z,99.90
2022-10-13T18:59:38.733Z,99.90
2022-10-13T19:01:13.813Z,99.90
2022-10-13T19:02:46.743Z,99.90
2022-10-13T19:04:18.923Z,99.90
2022-10-13T19:05:50.986Z,99.90
2022-10-13T19:07:23.321Z,99.90
2022-10-13T19:09:06.941Z,99.90
2022-10-13T19:10:39.513Z,99.90
2022-10-13T19:12:11.594Z,99.90
2022-10-13T19:13:44.545Z,99.90
2022-10-13T19:15:17.032Z,99.90
2022-10-13T19:16:49.169Z,99.90
2022-10-13T19:18:21.334Z,99.90
2022-10-13T19:19:53.516Z,99.90
2022-10-13T19:21:26.019Z,99.90
2022-10-13T19:22:58.308Z,99.90
2022-10-13T19:24:30.517Z,99.90
2022-10-13T19:26:15.227Z,99.90
2022-10-13T19:27:47.691Z,99.90
2022-10-13T19:29:19.878Z,99.90
2022-10-13T19:30:52.269Z,99.90
2022-10-13T19:32:24.504Z,99.90
2022-10-13T19:33:58.412Z,99.90
2022-10-13T19:35:30.660Z,99.90
2022-10-13T19:37:04.638Z,99.90
2022-10-13T19:38:37.628Z,99.90
2022-10-13T19:40:10.079Z,99.90
2022-10-13T19:41:43.667Z,99.90
2022-10-13T19:43:21.555Z,99.90
2022-10-13T19:44:53.735Z,99.90
2022-10-13T19:46:26.279Z,99.90
2022-10-13T19:47:58.536Z,99.90
2022-10-13T19:49:30.646Z,99.90
2022-10-13T19:51:06.608Z,99.90
2022-10-13T19:52:39.273Z,99.90
2022-10-13T19:54:12.303Z,99.90
2022-10-13T19:55:46.907Z,99.90
2022-10-13T19:57:19.550Z,99.90
2022-10-13T19:58:53.174Z,99.90
2022-10-13T20:00:25.455Z,99.90
2022-10-13T20:01:57.859Z,99.90
2022-10-13T20:03:30.184Z,99.90
2022-10-13T20:05:02.658Z,99.90
2022-10-13T20:06:36.767Z,99.90
2022-10-13T20:08:11.442Z,99.90
2022-10-13T20:09:43.668Z,99.90
2022-10-13T20:11:23.420Z,99.90
2022-10-13T20:12:56.690Z,99.90
2022-10-13T20:14:28.944Z,99.90
2022-10-13T20:16:06.912Z,99.90
2022-10-13T20:17:39.444Z,99.90
2022-10-13T20:19:13.454Z,99.90
2022-10-13T20:20:45.524Z,99.90
2022-10-13T20:22:17.735Z,99.90
2022-10-13T20:23:50.984Z,99.90
2022-10-13T20:25:23.068Z,99.90
2022-10-13T20:26:55.180Z,99.90
2022-10-13T20:28:28.027Z,99.90
2022-10-13T20:30:00.820Z,99.90
2022-10-13T20:31:33.143Z,99.90
2022-10-13T20:33:05.692Z,99.90
2022-10-13T20:34:38.041Z,99.90
2022-10-13T20:36:13.563Z,99.90
2022-10-13T20:37:45.814Z,99.90
2022-10-13T20:39:17.893Z,99.90
2022-10-13T20:40:49.940Z,99.90
2022-10-13T20:42:22.213Z,99.90
2022-10-13T20:43:56.411Z,99.90
2022-10-13T20:45:28.447Z,99.90
2022-10-13T20:47:00.563Z,99.90
2022-10-13T20:50:40.375Z,99.90
2022-10-13T20:52:12.426Z,99.90
2022-10-13T20:53:45.914Z,99.90
2022-10-13T20:55:18.028Z,99.90
2022-10-13T20:56:50.119Z,99.90
2022-10-13T20:58:33.251Z,99.90
2022-10-13T21:00:06.634Z,99.90
2022-10-13T21:01:39.492Z,99.90
2022-10-13T21:04:59.906Z,99.90
2022-10-13T21:06:32.852Z,99.90
2022-10-13T21:08:05.485Z,99.90
2022-10-13T21:09:37.637Z,99.90
2022-10-13T21:11:12.247Z,99.90
2022-10-13T21:12:44.594Z,99.90
2022-10-13T21:14:16.710Z,99.90
2022-10-13T21:15:49.974Z,99.90
2022-10-13T21:17:24.970Z,99.90
2022-10-13T21:18:59.311Z,99.90
2022-10-13T21:20:35.607Z,99.90
2022-10-13T21:22:11.787Z,99.90
2022-10-13T21:23:45.817Z,99.90
2022-10-13T21:25:18.479Z,99.90
2022-10-13T21:26:51.038Z,99.90
2022-10-13T21:28:24.961Z,99.90
2022-10-13T21:29:57.319Z,99.90
2022-10-13T21:31:29.735Z,99.90
2022-10-13T21:33:03.003Z,99.90
2022-10-13T21:34:36.150Z,99.90
2022-10-13T21:36:17.064Z,99.90
2022-10-13T21:37:49.537Z,99.90
2022-10-13T21:39:21.912Z,99.90
2022-10-13T21:40:54.179Z,99.90
2022-10-13T21:42:30.220Z,99.90
2022-10-13T21:44:02.705Z,99.90
2022-10-13T21:45:35.198Z,99.90
2022-10-13T21:47:07.717Z,99.90
2022-10-13T21:48:41.113Z,99.90
2022-10-13T21:50:13.185Z,99.90
2022-10-13T21:51:45.994Z,99.90
2022-10-13T21:53:18.279Z,99.90
2022-10-13T21:54:51.032Z,99.90
2022-10-13T21:56:23.875Z,99.90
2022-10-13T21:57:58.808Z,99.90
2022-10-13T21:59:34.415Z,99.90
2022-10-13T22:01:07.741Z,99.90
2022-10-13T22:02:42.003Z,99.90
2022-10-13T22:04:14.820Z,99.90
2022-10-13T22:05:46.956Z,99.90
2022-10-13T22:07:19.421Z,99.90
2022-10-13T22:08:53.982Z,99.90
2022-10-13T22:10:26.554Z,99.90
2022-10-13T22:11:59.410Z,99.90
2022-10-13T22:13:32.230Z,99.90
2022-10-13T22:15:04.700Z,99.90
2022-10-13T22:16:41.330Z,99.90
2022-10-13T22:18:13.410Z,99.90
2022-10-13T22:19:45.630Z,99.90
2022-10-13T22:21:20.128Z,99.90
2022-10-13T22:22:52.354Z,99.90
2022-10-13T22:24:24.411Z,99.90
2022-10-13T22:25:56.924Z,99.90
2022-10-13T22:27:28.947Z,99.90
2022-10-13T22:29:03.772Z,99.90
2022-10-13T22:30:38.670Z,99.90
2022-10-13T22:32:10.796Z,99.90
2022-10-13T22:33:43.868Z,99.90
2022-10-13T22:35:16.188Z,99.90
2022-10-13T22:36:48.372Z,99.90
2022-10-13T22:38:20.432Z,99.90
2022-10-13T22:39:55.971Z,99.90
2022-10-13T22:41:28.696Z,99.90
2022-10-13T22:43:00.811Z,99.90
2022-10-13T22:44:32.925Z,99.90
2022-10-13T22:46:05.248Z,99.90
2022-10-13T22:47:37.493Z,99.90
2022-10-13T22:49:10.632Z,99.90
2022-10-13T22:50:42.740Z,99.90
2022-10-13T22:52:14.772Z,99.90
2022-10-13T22:53:48.934Z,99.90
2022-10-13T22:55:21.115Z,99.90
2022-10-13T22:56:53.189Z,99.90
2022-10-13T22:58:25.685Z,99.90
2022-10-13T22:59:57.945Z,99.90
2022-10-13T23:01:30.523Z,99.90
2022-10-13T23:03:02.924Z,99.90
2022-10-13T23:04:36.051Z,99.90
2022-10-13T23:06:13.635Z,99.90
2022-10-13T23:07:46.979Z,99.90
2022-10-13T23:09:19.047Z,99.90
2022-10-13T23:10:51.175Z,99.90
2022-10-13T23:12:23.877Z,99.90
2022-10-13T23:13:57.477Z,99.90
2022-10-13T23:15:31.924Z,99.90
2022-10-13T23:17:05.513Z,99.90
2022-10-13T23:18:40.333Z,99.90
2022-10-13T23:20:14.671Z,99.90
2022-10-13T23:21:48.827Z,99.90
2022-10-13T23:23:21.257Z,99.90
2022-10-13T23:24:54.540Z,99.90
2022-10-13T23:26:27.692Z,99.90
2022-10-13T23:28:00.594Z,99.90
2022-10-13T23:29:33.351Z,99.90
2022-10-13T23:31:09.027Z,99.90
2022-10-13T23:32:41.242Z,99.90
2022-10-13T23:34:13.976Z,99.90
2022-10-13T23:35:56.807Z,99.90
2022-10-13T23:37:30.360Z,99.90
2022-10-13T23:39:06.302Z,99.90
2022-10-13T23:40:41.988Z,99.90
2022-10-13T23:42:15.341Z,99.90
2022-10-13T23:43:48.214Z,99.90
2022-10-13T23:45:20.718Z,99.90
2022-10-13T23:46:53.270Z,99.90
2022-10-13T23:48:25.518Z,99.90
2022-10-13T23:49:57.844Z,99.90
2022-10-13T23:51:30.362Z,99.90
2022-10-13T23:53:03.385Z,99.90
2022-10-13T23:54:35.515Z,99.90
2022-10-13T23:56:08.975Z,99.90
2022-10-13T23:57:41.019Z,99.90
2022-10-13T23:59:13.192Z,99.90
